createdAt,value
2023-05-01T00:01:32.683Z,3.90
2023-05-01T00:03:59.619Z,4.00
2023-05-01T00:06:26.420Z,3.88
2023-05-01T00:08:53.180Z,4.43
2023-05-01T00:11:19.858Z,4.53
2023-05-01T00:13:46.725Z,4.07
2023-05-01T00:16:13.849Z,4.47
2023-05-01T00:18:40.597Z,4.57
2023-05-01T00:21:07.175Z,4.50
2023-05-01T00:23:33.881Z,4.45
2023-05-01T00:26:00.601Z,4.22
2023-05-01T00:28:27.355Z,4.85
2023-05-01T00:30:54.052Z,3.80
2023-05-01T00:33:21.001Z,4.43
2023-05-01T00:35:47.804Z,4.18
2023-05-01T00:38:14.419Z,4.32
2023-05-01T00:40:45.002Z,4.30
2023-05-01T00:43:12.858Z,4.43
2023-05-01T00:45:45.510Z,4.47
2023-05-01T00:48:12.435Z,4.20
2023-05-01T00:50:39.434Z,4.35
2023-05-01T00:53:06.609Z,4.13
2023-05-01T00:55:33.812Z,4.10
2023-05-01T00:58:00.817Z,4.32
2023-05-01T01:00:27.593Z,4.25
2023-05-01T01:02:54.258Z,4.22
2023-05-01T01:05:22.179Z,4.20
2023-05-01T01:08:11.442Z,4.32
2023-05-01T01:10:53.345Z,4.40
2023-05-01T01:13:58.964Z,4.05
2023-05-01T01:16:34.044Z,4.57
2023-05-01T01:19:17.107Z,4.68
2023-05-01T01:21:47.409Z,4.47
2023-05-01T01:24:32.314Z,4.43
2023-05-01T01:27:20.959Z,5.13
2023-05-01T01:29:47.497Z,4.57
2023-05-01T01:32:53.696Z,4.22
2023-05-01T01:35:21.394Z,4.10
2023-05-01T01:38:02.345Z,4.53
2023-05-01T01:40:34.242Z,4.97
2023-05-01T01:43:07.695Z,4.40
2023-05-01T01:45:40.197Z,4.03
2023-05-01T01:48:09.918Z,4.78
2023-05-01T01:50:38.229Z,5.05
2023-05-01T01:53:07.064Z,4.70
2023-05-01T01:55:35.109Z,4.15
2023-05-01T01:58:03.317Z,4.28
2023-05-01T02:00:30.844Z,4.75
2023-05-01T02:02:59.282Z,4.35
2023-05-01T02:05:26.461Z,4.43
2023-05-01T02:07:55.607Z,4.82
2023-05-01T02:10:23.278Z,4.65
2023-05-01T02:12:51.870Z,4.28
2023-05-01T02:15:19.324Z,4.72
2023-05-01T02:17:46.210Z,4.43
2023-05-01T02:20:13.779Z,4.72
2023-05-01T02:22:41.113Z,4.32
2023-05-01T02:25:12.959Z,4.30
2023-05-01T02:27:44.105Z,4.70
2023-05-01T02:30:11.795Z,4.32
2023-05-01T02:32:38.557Z,4.82
2023-05-01T02:35:06.143Z,4.47
2023-05-01T02:37:33.217Z,4.95
2023-05-01T02:40:00.002Z,4.25
2023-05-01T02:42:28.185Z,4.43
2023-05-01T02:45:01.579Z,4.40
2023-05-01T02:47:30.455Z,5.25
2023-05-01T02:49:58.296Z,5.10
2023-05-01T02:52:26.725Z,5.40
2023-05-01T02:55:05.926Z,4.90
2023-05-01T02:57:33.304Z,5.22
2023-05-01T02:59:59.968Z,5.32
2023-05-01T03:02:26.864Z,6.07
2023-05-01T03:04:53.548Z,5.43
2023-05-01T03:07:21.294Z,5.63
2023-05-01T03:09:47.959Z,5.13
2023-05-01T03:12:14.564Z,4.85
2023-05-01T03:14:41.319Z,5.72
2023-05-01T03:17:08.096Z,4.72
2023-05-01T03:19:34.782Z,4.80
2023-05-01T03:22:01.364Z,5.20
2023-05-01T03:24:28.274Z,5.40
2023-05-01T03:26:55.130Z,5.18
2023-05-01T03:29:21.764Z,5.43
2023-05-01T03:31:48.638Z,5.38
2023-05-01T03:34:15.442Z,5.80
2023-05-01T03:36:42.269Z,5.55
2023-05-01T03:39:09.039Z,5.20
2023-05-01T03:41:35.953Z,5.70
2023-05-01T03:44:11.096Z,6.15
2023-05-01T03:46:41.365Z,5.68
2023-05-01T03:49:11.480Z,6.47
2023-05-01T03:51:44.889Z,5.50
2023-05-01T03:54:11.623Z,6.60
2023-05-01T03:56:57.135Z,6.00
2023-05-01T03:59:24.066Z,5.95
2023-05-01T04:01:50.966Z,5.85
2023-05-01T04:04:17.730Z,6.10
2023-05-01T04:06:49.940Z,5.88
2023-05-01T04:09:16.814Z,5.97
2023-05-01T04:11:43.602Z,5.82
2023-05-01T04:14:10.274Z,6.15
2023-05-01T04:16:37.322Z,7.20
2023-05-01T04:19:04.197Z,6.97
2023-05-01T04:21:34.008Z,6.57
2023-05-01T04:24:00.619Z,6.88
2023-05-01T04:26:29.082Z,6.15
2023-05-01T04:28:55.783Z,6.32
2023-05-01T04:31:25.080Z,5.70
2023-05-01T04:33:51.914Z,6.57
2023-05-01T04:36:19.151Z,6.55
2023-05-01T04:38:45.823Z,6.45
2023-05-01T04:41:13.074Z,6.82
2023-05-01T04:43:39.839Z,6.90
2023-05-01T04:46:07.735Z,6.82
2023-05-01T04:48:34.379Z,6.93
2023-05-01T04:51:00.974Z,6.53
2023-05-01T04:53:30.946Z,6.25
2023-05-01T04:55:58.510Z,7.18
2023-05-01T04:58:25.395Z,6.65
2023-05-01T05:00:58.410Z,6.90
2023-05-01T05:03:25.212Z,7.18
2023-05-01T05:05:52.137Z,7.35
2023-05-01T05:08:19.463Z,7.05
2023-05-01T05:10:50.181Z,6.60
2023-05-01T05:13:24.570Z,6.65
2023-05-01T05:15:59.325Z,6.50
2023-05-01T05:18:26.421Z,6.78
2023-05-01T05:20:53.071Z,7.18
2023-05-01T05:23:19.740Z,7.00
2023-05-01T05:25:46.475Z,6.80
2023-05-01T05:28:13.234Z,6.90
2023-05-01T05:30:41.585Z,7.57
2023-05-01T05:33:13.485Z,6.65
2023-05-01T05:35:40.217Z,6.70
2023-05-01T05:38:07.036Z,7.68
2023-05-01T05:40:36.923Z,6.68
2023-05-01T05:43:03.629Z,6.82
2023-05-01T05:45:34.503Z,7.05
2023-05-01T05:48:01.697Z,6.63
2023-05-01T05:50:31.034Z,7.28
2023-05-01T05:52:58.347Z,7.20
2023-05-01T05:55:25.751Z,6.65
2023-05-01T05:58:01.667Z,6.80
2023-05-01T06:00:29.108Z,6.93
2023-05-01T06:02:58.075Z,7.38
2023-05-01T06:05:27.772Z,6.80
2023-05-01T06:07:54.962Z,6.35
2023-05-01T06:10:21.611Z,6.90
2023-05-01T06:12:49.224Z,7.18
2023-05-01T06:15:20.539Z,6.85
2023-05-01T06:17:53.124Z,6.63
2023-05-01T06:20:19.928Z,6.75
2023-05-01T06:22:46.919Z,6.55
2023-05-01T06:25:21.651Z,6.40
2023-05-01T06:27:49.305Z,6.28
2023-05-01T06:30:19.786Z,5.65
2023-05-01T06:32:46.977Z,5.68
2023-05-01T06:35:15.537Z,5.40
2023-05-01T06:37:42.283Z,5.95
2023-05-01T06:40:12.080Z,5.93
2023-05-01T06:42:39.832Z,7.13
2023-05-01T06:45:07.561Z,6.20
2023-05-01T06:47:35.010Z,5.80
2023-05-01T06:50:04.426Z,5.57
2023-05-01T06:52:33.702Z,5.32
2023-05-01T06:55:00.428Z,5.95
2023-05-01T06:57:27.314Z,6.22
2023-05-01T06:59:54.383Z,5.35
2023-05-01T07:02:21.332Z,5.63
2023-05-01T07:04:48.092Z,5.93
2023-05-01T07:07:14.889Z,5.78
2023-05-01T07:09:41.641Z,5.75
2023-05-01T07:12:08.713Z,6.00
2023-05-01T07:14:35.958Z,5.88
2023-05-01T07:17:03.390Z,5.82
2023-05-01T07:19:30.059Z,5.65
2023-05-01T07:21:56.801Z,6.22
2023-05-01T07:24:23.484Z,6.43
2023-05-01T07:26:50.153Z,5.80
2023-05-01T07:29:16.811Z,6.43
2023-05-01T07:31:44.251Z,5.90
2023-05-01T07:34:11.923Z,5.05
2023-05-01T07:36:38.715Z,6.03
2023-05-01T07:39:06.667Z,5.80
2023-05-01T07:41:33.335Z,5.20
2023-05-01T07:44:00.854Z,5.47
2023-05-01T07:46:27.669Z,5.53
2023-05-01T07:48:54.560Z,6.13
2023-05-01T07:51:21.697Z,5.40
2023-05-01T07:53:49.369Z,5.60
2023-05-01T07:56:16.528Z,5.38
2023-05-01T07:58:43.986Z,5.53
2023-05-01T08:01:10.714Z,5.90
2023-05-01T08:03:37.826Z,5.55
2023-05-01T08:06:05.680Z,6.07
2023-05-01T08:08:32.329Z,5.80
2023-05-01T08:10:59.591Z,5.00
2023-05-01T08:13:26.273Z,5.60
2023-05-01T08:15:53.119Z,6.00
2023-05-01T08:18:21.102Z,5.30
2023-05-01T08:20:48.349Z,4.80
2023-05-01T08:23:18.629Z,4.93
2023-05-01T08:25:46.995Z,6.15
2023-05-01T08:28:14.972Z,5.63
2023-05-01T08:30:41.711Z,5.53
2023-05-01T08:33:08.347Z,5.72
2023-05-01T08:35:35.113Z,5.70
2023-05-01T08:38:02.097Z,5.70
2023-05-01T08:40:31.915Z,6.10
2023-05-01T08:43:00.727Z,5.75
2023-05-01T08:45:27.812Z,6.30
2023-05-01T08:47:55.422Z,6.13
2023-05-01T08:50:22.848Z,5.90
2023-05-01T08:52:51.660Z,5.70
2023-05-01T08:55:19.151Z,5.47
2023-05-01T08:57:46.865Z,5.70
2023-05-01T09:00:21.576Z,5.47
2023-05-01T09:02:50.021Z,5.70
2023-05-01T09:05:18.178Z,5.53
2023-05-01T09:07:46.576Z,6.05
2023-05-01T09:10:14.336Z,5.70
2023-05-01T09:12:42.253Z,5.90
2023-05-01T09:15:09.807Z,6.22
2023-05-01T09:17:37.024Z,5.30
2023-05-01T09:20:06.363Z,6.30
2023-05-01T09:22:34.298Z,6.68
2023-05-01T09:25:02.152Z,6.20
2023-05-01T09:27:29.754Z,5.28
2023-05-01T09:29:56.641Z,5.55
2023-05-01T09:32:26.067Z,5.40
2023-05-01T09:34:53.598Z,5.70
2023-05-01T09:37:32.721Z,5.47
2023-05-01T09:40:10.028Z,5.18
2023-05-01T09:42:41.445Z,5.05
2023-05-01T09:45:15.156Z,4.85
2023-05-01T09:47:46.039Z,4.45
2023-05-01T09:50:29.604Z,4.25
2023-05-01T09:52:56.434Z,3.78
2023-05-01T09:55:25.625Z,4.78
2023-05-01T09:57:53.077Z,4.10
2023-05-01T10:00:22.090Z,3.30
2023-05-01T10:02:50.009Z,3.72
2023-05-01T10:05:17.722Z,5.03
2023-05-01T10:08:05.837Z,3.78
2023-05-01T10:10:32.505Z,4.50
2023-05-01T10:13:14.286Z,3.67
2023-05-01T10:15:40.984Z,2.58
2023-05-01T10:18:10.254Z,2.47
2023-05-01T10:20:36.988Z,2.50
2023-05-01T10:23:03.729Z,2.80
2023-05-01T10:25:31.914Z,2.90
2023-05-01T10:27:58.737Z,3.50
2023-05-01T10:30:29.933Z,3.70
2023-05-01T10:32:58.538Z,3.88
2023-05-01T10:35:28.892Z,4.25
2023-05-01T10:38:00.928Z,3.05
2023-05-01T10:40:39.825Z,3.80
2023-05-01T10:43:26.095Z,3.65
2023-05-01T10:45:53.118Z,2.88
2023-05-01T10:48:43.942Z,2.65
2023-05-01T10:51:14.386Z,3.03
2023-05-01T10:53:48.352Z,3.10
2023-05-01T10:56:29.957Z,3.50
2023-05-01T10:58:59.173Z,2.83
2023-05-01T11:01:33.805Z,2.75
2023-05-01T11:04:04.406Z,2.63
2023-05-01T11:06:32.157Z,2.53
2023-05-01T11:08:59.620Z,1.83
2023-05-01T11:11:26.898Z,1.50
2023-05-01T11:14:08.609Z,1.88
2023-05-01T11:16:38.386Z,1.50
2023-05-01T11:19:09.729Z,1.83
2023-05-01T11:21:38.864Z,2.10
2023-05-01T11:24:06.686Z,1.67
2023-05-01T11:26:37.811Z,2.00
2023-05-01T11:29:05.742Z,2.42
2023-05-01T11:31:32.773Z,1.80
2023-05-01T11:34:00.333Z,2.03
2023-05-01T11:36:28.273Z,2.10
2023-05-01T11:38:59.615Z,2.10
2023-05-01T11:41:27.175Z,2.13
2023-05-01T11:43:56.336Z,1.88
2023-05-01T11:46:30.200Z,1.70
2023-05-01T11:48:58.817Z,1.83
2023-05-01T11:51:26.783Z,1.90
2023-05-01T11:54:07.758Z,1.70
2023-05-01T11:56:35.538Z,1.30
2023-05-01T11:59:16.740Z,1.30
2023-05-01T12:01:47.047Z,1.45
2023-05-01T12:04:23.926Z,1.48
2023-05-01T12:06:51.298Z,1.30
2023-05-01T12:09:22.963Z,2.20
2023-05-01T12:11:52.795Z,1.83
2023-05-01T12:14:21.563Z,1.35
2023-05-01T12:16:48.573Z,1.52
2023-05-01T12:19:15.795Z,1.40
2023-05-01T12:21:42.556Z,1.40
2023-05-01T12:24:10.863Z,1.40
2023-05-01T12:26:37.851Z,1.55
2023-05-01T12:29:06.359Z,1.48
2023-05-01T12:31:33.406Z,1.15
2023-05-01T12:34:07.541Z,1.10
2023-05-01T12:36:35.871Z,1.25
2023-05-01T12:39:04.515Z,1.33
2023-05-01T12:41:45.787Z,1.15
2023-05-01T12:44:19.313Z,0.88
2023-05-01T12:46:52.672Z,1.40
2023-05-01T12:49:20.551Z,1.20
2023-05-01T12:51:48.874Z,1.20
2023-05-01T12:54:29.422Z,1.10
2023-05-01T12:57:06.581Z,0.93
2023-05-01T12:59:33.420Z,1.05
2023-05-01T13:02:01.080Z,1.10
2023-05-01T13:04:28.276Z,1.00
2023-05-01T13:06:56.126Z,0.93
2023-05-01T13:09:23.837Z,1.27
2023-05-01T13:12:05.116Z,1.10
2023-05-01T13:14:39.065Z,1.10
2023-05-01T13:17:14.195Z,1.02
2023-05-01T13:19:41.397Z,1.73
2023-05-01T13:22:08.078Z,1.20
2023-05-01T13:24:42.744Z,1.50
2023-05-01T13:27:09.609Z,1.20
2023-05-01T13:29:36.376Z,1.33
2023-05-01T13:32:06.794Z,1.17
2023-05-01T13:34:34.579Z,1.02
2023-05-01T13:37:02.242Z,1.60
2023-05-01T13:39:29.366Z,1.50
2023-05-01T13:41:56.233Z,1.05
2023-05-01T13:44:23.011Z,1.48
2023-05-01T13:46:49.853Z,1.58
2023-05-01T13:49:18.077Z,1.90
2023-05-01T13:51:45.220Z,2.20
2023-05-01T13:54:12.490Z,1.98
2023-05-01T13:56:40.667Z,1.60
2023-05-01T13:59:08.377Z,1.33
2023-05-01T14:01:43.009Z,1.63
2023-05-01T14:04:11.005Z,1.83
2023-05-01T14:06:42.527Z,1.45
2023-05-01T14:09:09.433Z,1.63
2023-05-01T14:11:45.224Z,1.10
2023-05-01T14:14:12.269Z,1.42
2023-05-01T14:16:40.977Z,1.50
2023-05-01T14:19:07.633Z,1.30
2023-05-01T14:21:39.162Z,1.10
2023-05-01T14:24:07.570Z,1.20
2023-05-01T14:26:35.844Z,1.38
2023-05-01T14:29:03.832Z,1.05
2023-05-01T14:31:31.123Z,1.40
2023-05-01T14:33:59.815Z,1.90
2023-05-01T14:36:31.679Z,1.23
2023-05-01T14:38:59.780Z,1.38
2023-05-01T14:41:26.799Z,1.40
2023-05-01T14:43:53.771Z,1.42
2023-05-01T14:46:31.376Z,1.48
2023-05-01T14:48:58.835Z,1.90
2023-05-01T14:51:25.838Z,1.70
2023-05-01T14:53:52.461Z,1.80
2023-05-01T14:56:19.167Z,2.13
2023-05-01T14:58:46.890Z,2.10
2023-05-01T15:01:14.332Z,2.00
2023-05-01T15:03:41.629Z,3.20
2023-05-01T15:06:08.894Z,2.33
2023-05-01T15:08:36.103Z,3.00
2023-05-01T15:11:02.729Z,2.92
2023-05-01T15:13:31.696Z,3.53
2023-05-01T15:15:58.590Z,2.50
2023-05-01T15:18:25.428Z,2.85
2023-05-01T15:20:52.119Z,3.03
2023-05-01T15:23:18.760Z,2.97
2023-05-01T15:25:45.484Z,2.80
2023-05-01T15:28:13.493Z,3.00
2023-05-01T15:30:44.438Z,3.25
2023-05-01T15:33:11.412Z,3.15
2023-05-01T15:35:38.578Z,3.00
2023-05-01T15:38:05.643Z,3.22
2023-05-01T15:40:33.485Z,3.03
2023-05-01T15:43:01.093Z,2.63
2023-05-01T15:45:27.803Z,3.10
2023-05-01T15:47:54.643Z,3.20
2023-05-01T15:50:22.188Z,3.53
2023-05-01T15:52:48.874Z,3.00
2023-05-01T15:55:16.039Z,3.42
2023-05-01T15:57:46.319Z,3.05
2023-05-01T16:00:14.531Z,3.40
2023-05-01T16:02:42.658Z,3.50
2023-05-01T16:05:09.729Z,3.25
2023-05-01T16:07:36.551Z,3.20
2023-05-01T16:10:03.881Z,3.20
2023-05-01T16:12:31.145Z,3.00
2023-05-01T16:14:57.871Z,3.78
2023-05-01T16:17:24.573Z,3.58
2023-05-01T16:19:52.742Z,3.20
2023-05-01T16:22:20.439Z,2.80
2023-05-01T16:24:47.134Z,3.28
2023-05-01T16:27:13.926Z,3.50
2023-05-01T16:29:40.939Z,3.55
2023-05-01T16:32:11.315Z,2.97
2023-05-01T16:34:40.028Z,3.17
2023-05-01T16:37:06.830Z,4.03
2023-05-01T16:39:37.022Z,3.33
2023-05-01T16:42:03.923Z,2.95
2023-05-01T16:44:30.528Z,3.05
2023-05-01T16:47:03.350Z,3.60
2023-05-01T16:49:30.097Z,3.78
2023-05-01T16:51:58.262Z,4.03
2023-05-01T16:54:26.937Z,6.35
2023-05-01T16:56:53.540Z,3.92
2023-05-01T16:59:20.123Z,4.95
2023-05-01T17:01:46.985Z,5.47
2023-05-01T17:04:15.097Z,6.50
2023-05-01T17:06:41.916Z,6.43
2023-05-01T17:09:08.947Z,7.45
2023-05-01T17:11:35.829Z,10.80
2023-05-01T17:14:02.924Z,7.57
2023-05-01T17:16:30.189Z,8.93
2023-05-01T17:18:56.859Z,6.88
2023-05-01T17:21:24.720Z,7.35
2023-05-01T17:23:51.387Z,6.00
2023-05-01T17:26:18.130Z,5.95
2023-05-01T17:28:47.343Z,7.15
2023-05-01T17:31:15.826Z,8.60
2023-05-01T17:33:44.012Z,10.70
2023-05-01T17:36:10.664Z,10.35
2023-05-01T17:38:37.475Z,8.80
2023-05-01T17:41:04.571Z,8.98
2023-05-01T17:43:31.345Z,9.65
2023-05-01T17:45:58.073Z,10.43
2023-05-01T17:48:24.739Z,10.52
2023-05-01T17:50:51.358Z,10.38
2023-05-01T17:53:18.066Z,10.90
2023-05-01T17:55:45.097Z,10.15
2023-05-01T17:58:11.965Z,10.10
2023-05-01T18:00:38.729Z,9.38
2023-05-01T18:03:06.095Z,10.30
2023-05-01T18:05:32.977Z,11.45
2023-05-01T18:07:59.610Z,11.10
2023-05-01T18:10:31.065Z,16.40
2023-05-01T18:12:58.255Z,15.38
2023-05-01T18:15:25.281Z,12.85
2023-05-01T18:17:51.995Z,13.70
2023-05-01T18:20:19.528Z,13.73
2023-05-01T18:22:46.340Z,14.88
2023-05-01T18:25:14.027Z,11.48
2023-05-01T18:27:41.739Z,13.68
2023-05-01T18:30:09.365Z,18.33
2023-05-01T18:32:46.792Z,13.93
2023-05-01T18:35:15.349Z,13.43
2023-05-01T18:37:42.773Z,13.45
2023-05-01T18:40:09.972Z,14.05
2023-05-01T18:42:36.690Z,14.52
2023-05-01T18:45:04.071Z,14.48
2023-05-01T18:47:32.496Z,14.93
2023-05-01T18:49:59.735Z,14.32
2023-05-01T18:52:26.668Z,14.90
2023-05-01T18:54:53.284Z,15.15
2023-05-01T18:57:19.876Z,13.52
2023-05-01T18:59:46.614Z,13.98
2023-05-01T19:02:13.326Z,13.98
2023-05-01T19:04:56.847Z,15.48
2023-05-01T19:07:25.913Z,15.90
2023-05-01T19:09:52.692Z,15.38
2023-05-01T19:12:19.337Z,16.35
2023-05-01T19:14:45.969Z,18.45
2023-05-01T19:17:12.621Z,21.50
2023-05-01T19:19:39.342Z,25.27
2023-05-01T19:22:06.310Z,24.65
2023-05-01T19:24:33.021Z,27.65
2023-05-01T19:26:59.684Z,25.05
2023-05-01T19:29:26.349Z,25.88
2023-05-01T19:31:53.124Z,24.45
2023-05-01T19:34:20.750Z,24.90
2023-05-01T19:36:47.427Z,25.75
2023-05-01T19:39:14.066Z,27.55
2023-05-01T19:41:40.770Z,25.00
2023-05-01T19:44:07.979Z,25.52
2023-05-01T19:46:34.611Z,23.45
2023-05-01T19:49:01.252Z,23.73
2023-05-01T19:51:28.295Z,22.35
2023-05-01T19:53:54.971Z,24.83
2023-05-01T19:56:21.586Z,23.77
2023-05-01T19:58:48.171Z,23.40
2023-05-01T20:01:15.023Z,24.08
2023-05-01T20:03:41.816Z,26.58
2023-05-01T20:06:09.117Z,25.48
2023-05-01T20:08:35.884Z,23.88
2023-05-01T20:11:02.576Z,23.17
2023-05-01T20:13:29.717Z,22.52
2023-05-01T20:15:56.656Z,22.23
2023-05-01T20:18:23.719Z,21.60
2023-05-01T20:20:50.502Z,22.45
2023-05-01T20:23:19.473Z,20.33
2023-05-01T20:25:50.139Z,21.92
2023-05-01T20:28:16.844Z,20.63
2023-05-01T20:30:45.478Z,20.85
2023-05-01T20:33:12.230Z,20.50
2023-05-01T20:35:39.465Z,22.45
2023-05-01T20:38:06.218Z,23.45
2023-05-01T20:40:33.451Z,24.10
2023-05-01T20:43:00.704Z,21.10
2023-05-01T20:45:29.164Z,21.08
2023-05-01T20:47:56.196Z,19.88
2023-05-01T20:50:23.841Z,18.48
2023-05-01T20:52:51.304Z,19.63
2023-05-01T20:55:18.375Z,18.77
2023-05-01T20:57:45.063Z,19.80
2023-05-01T21:00:11.928Z,19.33
2023-05-01T21:02:39.464Z,19.13
2023-05-01T21:05:07.597Z,19.23
2023-05-01T21:07:38.215Z,19.65
2023-05-01T21:10:11.401Z,18.98
2023-05-01T21:12:38.646Z,19.58
2023-05-01T21:15:06.159Z,19.50
2023-05-01T21:17:33.616Z,19.60
2023-05-01T21:20:01.264Z,20.40
2023-05-01T21:22:28.498Z,20.67
2023-05-01T21:24:56.814Z,20.48
2023-05-01T21:27:24.687Z,20.98
2023-05-01T21:29:59.324Z,20.17
2023-05-01T21:32:32.938Z,21.15
2023-05-01T21:35:00.355Z,21.75
2023-05-01T21:37:27.203Z,21.45
2023-05-01T21:39:53.912Z,21.25
2023-05-01T21:42:20.595Z,21.60
2023-05-01T21:44:47.218Z,22.50
2023-05-01T21:47:15.140Z,21.85
2023-05-01T21:49:41.847Z,23.15
2023-05-01T21:52:08.900Z,22.35
2023-05-01T21:54:36.440Z,22.92
2023-05-01T21:57:05.503Z,22.83
2023-05-01T21:59:36.116Z,23.80
2023-05-01T22:02:11.796Z,24.73
2023-05-01T22:04:39.173Z,22.73
2023-05-01T22:07:06.096Z,22.55
2023-05-01T22:09:33.161Z,22.80
2023-05-01T22:11:59.827Z,24.48
2023-05-01T22:14:33.513Z,23.92
2023-05-01T22:17:06.851Z,24.63
2023-05-01T22:19:33.561Z,24.23
2023-05-01T22:22:00.397Z,24.15
2023-05-01T22:24:27.041Z,24.00
2023-05-01T22:26:53.643Z,25.00
2023-05-01T22:29:20.485Z,25.38
2023-05-01T22:31:47.167Z,24.00
2023-05-01T22:34:13.968Z,24.70
2023-05-01T22:36:40.559Z,24.48
2023-05-01T22:39:07.296Z,23.75
2023-05-01T22:41:33.908Z,25.50
2023-05-01T22:44:00.577Z,24.65
2023-05-01T22:46:27.250Z,23.48
2023-05-01T22:48:55.131Z,25.20
2023-05-01T22:51:21.827Z,23.15
2023-05-01T22:53:48.452Z,24.33
2023-05-01T22:56:15.158Z,23.50
2023-05-01T22:58:42.751Z,24.55
2023-05-01T23:01:09.524Z,24.10
2023-05-01T23:03:38.660Z,22.42
2023-05-01T23:06:06.474Z,20.05
2023-05-01T23:08:35.952Z,19.67
2023-05-01T23:11:02.896Z,19.40
2023-05-01T23:13:32.125Z,20.10
2023-05-01T23:15:58.844Z,21.92
2023-05-01T23:18:30.841Z,22.23
2023-05-01T23:20:57.591Z,22.77
2023-05-01T23:23:29.202Z,19.65
2023-05-01T23:25:55.808Z,21.48
2023-05-01T23:28:24.666Z,21.33
2023-05-01T23:30:55.910Z,22.13
2023-05-01T23:33:28.077Z,19.45
2023-05-01T23:35:54.868Z,19.45
2023-05-01T23:38:21.653Z,19.02
2023-05-01T23:40:49.714Z,18.17
2023-05-01T23:43:17.195Z,19.50
2023-05-01T23:45:43.982Z,18.15
2023-05-01T23:48:10.931Z,18.33
2023-05-01T23:50:37.919Z,18.55
2023-05-01T23:53:07.522Z,17.75
2023-05-01T23:55:40.003Z,17.83
2023-05-01T23:58:06.757Z,17.08
